Forside
METAR-TAF:

METAR-TAF

Lufthavne :

Rexburg-Madison County Airport

Rexburg, Idaho, USA

Breddekreds: 43-49-54N, længdekreds: 111-48-22W, højde: 1481 m

Aktuelle vejr

Denne rapport blev lavet for 40 minutter siden, kl. 15:53 UTC
Vind 4 kt fra øst
Temperatur 6°C
Fugtighed 81%
Tryk 1020 hPa
Sigt: 16.1 km
Overskyet i en højde af 6500 ft

METAR: KRXE 231553Z AUTO 08004KT 10SM OVC065 06/03 A3011 RMK AO2 RAB1454E34 SLP195 P0001 T00560028

Tid: 10:33 (16:33 UTC)


TAF: fraværende

Vejrobservationer og prognoser fra mere end 4000 lufthavne (METAR og TAF).

De gule og røde prikker repræsenterer de meteorologiske stationer.

Flyt musen over at se navnet på stationen.

Så klik over at se vejr observationer og prognoser.

At skifte det kort: Klik på de grønne knapper med et sort kors for at zoome ind; på den grønne knap med en bindestreg for at zoome ud; eller på de grønne pile for tilstødende kort.


METAR-TAF: